createdAt,value
2022-09-11T00:01:14.374Z,96.97
2022-09-11T00:03:45.121Z,96.89
2022-09-11T00:06:20.433Z,96.70
2022-09-11T00:09:00.948Z,97.04
2022-09-11T00:11:30.741Z,96.98
2022-09-11T00:13:57.694Z,97.71
2022-09-11T00:16:31.446Z,97.76
2022-09-11T00:19:00.790Z,98.12
2022-09-11T00:21:28.131Z,98.02
2022-09-11T00:23:54.882Z,97.52
2022-09-11T00:26:22.244Z,97.30
2022-09-11T00:28:50.693Z,96.92
2022-09-11T00:31:28.104Z,96.61
2022-09-11T00:33:55.222Z,96.94
2022-09-11T00:36:24.496Z,96.28
2022-09-11T00:38:51.654Z,96.46
2022-09-11T00:41:22.965Z,97.56
2022-09-11T00:43:56.984Z,97.73
2022-09-11T00:46:31.402Z,98.38
2022-09-11T00:49:00.709Z,98.54
2022-09-11T00:51:31.132Z,98.21
2022-09-11T00:53:58.632Z,97.77
2022-09-11T00:56:29.632Z,98.90
2022-09-11T00:58:57.917Z,98.78
2022-09-11T01:01:24.489Z,99.05
2022-09-11T01:03:51.321Z,99.60
2022-09-11T01:06:20.984Z,99.23
2022-09-11T01:08:47.507Z,99.49
2022-09-11T01:11:25.835Z,99.19
2022-09-11T01:14:06.980Z,99.71
2022-09-11T01:16:59.871Z,100.00
2022-09-11T01:19:47.283Z,100.00
2022-09-11T01:22:35.685Z,100.00
2022-09-11T01:25:49.837Z,100.00
2022-09-11T01:28:23.309Z,100.00
2022-09-11T01:31:06.158Z,100.00
2022-09-11T01:33:44.853Z,100.00
2022-09-11T01:36:28.796Z,100.00
2022-09-11T01:39:02.333Z,100.00
2022-09-11T01:41:35.731Z,100.00
2022-09-11T01:44:28.894Z,100.00
2022-09-11T01:46:55.848Z,100.00
2022-09-11T01:49:28.068Z,99.73
2022-09-11T01:51:59.142Z,99.81
2022-09-11T01:54:32.801Z,99.65
2022-09-11T01:57:09.682Z,98.88
2022-09-11T01:59:58.943Z,99.35
2022-09-11T02:02:33.045Z,99.40
2022-09-11T02:05:15.608Z,99.78
2022-09-11T02:07:48.824Z,100.00
2022-09-11T02:10:21.133Z,100.00
2022-09-11T02:12:57.758Z,100.00
2022-09-11T02:15:33.607Z,99.99
2022-09-11T02:18:26.981Z,99.58
2022-09-11T02:20:53.751Z,99.33
2022-09-11T02:23:21.282Z,99.74
2022-09-11T02:25:48.208Z,99.69
2022-09-11T02:28:14.750Z,99.60
2022-09-11T02:30:42.977Z,99.78
2022-09-11T02:33:36.490Z,100.00
2022-09-11T02:36:22.427Z,100.00
2022-09-11T02:39:07.767Z,100.00
2022-09-11T02:42:02.616Z,100.00
2022-09-11T02:44:53.806Z,100.00
2022-09-11T02:47:55.939Z,100.00
2022-09-11T02:50:33.185Z,100.00
2022-09-11T02:53:05.720Z,100.00
2022-09-11T02:55:39.243Z,100.00
2022-09-11T02:58:15.041Z,100.00
2022-09-11T03:00:41.882Z,100.00
2022-09-11T03:03:08.383Z,100.00
2022-09-11T03:05:37.188Z,100.00
2022-09-11T03:08:04.410Z,100.00
2022-09-11T03:10:30.929Z,100.00
2022-09-11T03:12:59.666Z,100.00
2022-09-11T03:15:26.942Z,100.00
2022-09-11T03:17:53.441Z,100.00
2022-09-11T03:20:20.869Z,100.00
2022-09-11T03:22:47.548Z,100.00
2022-09-11T03:25:15.138Z,100.00
2022-09-11T03:27:42.197Z,100.00
2022-09-11T03:30:09.424Z,100.00
2022-09-11T03:32:35.910Z,100.00
2022-09-11T03:35:02.482Z,100.00
2022-09-11T03:37:29.107Z,100.00
2022-09-11T03:39:55.876Z,100.00
2022-09-11T03:42:22.651Z,100.00
2022-09-11T03:44:49.144Z,100.00
2022-09-11T03:47:15.659Z,100.00
2022-09-11T03:49:42.144Z,100.00
2022-09-11T03:52:08.641Z,100.00
2022-09-11T03:54:35.600Z,100.00
2022-09-11T03:57:02.110Z,100.00
2022-09-11T03:59:29.116Z,100.00
2022-09-11T04:01:55.733Z,100.00
2022-09-11T04:04:22.455Z,100.00
2022-09-11T04:06:49.005Z,100.00
2022-09-11T04:09:15.583Z,100.00
2022-09-11T04:11:42.035Z,100.00
2022-09-11T04:14:09.047Z,100.00
2022-09-11T04:16:35.615Z,100.00
2022-09-11T04:19:02.703Z,100.00
2022-09-11T04:21:30.027Z,100.00
2022-09-11T04:24:00.379Z,100.00
2022-09-11T04:26:29.742Z,100.00
2022-09-11T04:28:57.221Z,100.00
2022-09-11T04:31:23.709Z,100.00
2022-09-11T04:33:50.389Z,100.00
2022-09-11T04:36:19.267Z,100.00
2022-09-11T04:38:47.088Z,100.00
2022-09-11T04:41:15.877Z,100.00
2022-09-11T04:43:42.704Z,100.00
2022-09-11T04:46:17.583Z,100.00
2022-09-11T04:48:48.728Z,100.00
2022-09-11T04:51:22.892Z,100.00
2022-09-11T04:53:50.338Z,100.00
2022-09-11T04:56:17.358Z,100.00
2022-09-11T04:58:44.211Z,100.00
2022-09-11T05:01:15.757Z,100.00
2022-09-11T05:03:44.017Z,100.00
2022-09-11T05:06:16.457Z,100.00
2022-09-11T05:08:44.765Z,100.00
2022-09-11T05:11:13.500Z,100.00
2022-09-11T05:13:41.182Z,100.00
2022-09-11T05:16:10.933Z,100.00
2022-09-11T05:18:40.048Z,100.00
2022-09-11T05:21:17.936Z,100.00
2022-09-11T05:23:48.083Z,100.00
2022-09-11T05:26:17.119Z,100.00
2022-09-11T05:28:43.903Z,100.00
2022-09-11T05:31:13.473Z,100.00
2022-09-11T05:33:40.467Z,100.00
2022-09-11T05:36:07.638Z,100.00
2022-09-11T05:38:36.654Z,100.00
2022-09-11T05:41:06.367Z,100.00
2022-09-11T05:43:34.058Z,100.00
2022-09-11T05:46:01.946Z,100.00
2022-09-11T05:48:30.105Z,100.00
2022-09-11T05:51:02.247Z,100.00
2022-09-11T05:53:33.812Z,100.00
2022-09-11T05:56:15.884Z,100.00
2022-09-11T05:58:43.826Z,100.00
2022-09-11T06:01:15.614Z,100.00
2022-09-11T06:03:43.063Z,100.00
2022-09-11T06:06:11.987Z,100.00
2022-09-11T06:08:40.069Z,100.00
2022-09-11T06:11:07.784Z,100.00
2022-09-11T06:13:36.950Z,100.00
2022-09-11T06:16:03.471Z,100.00
2022-09-11T06:18:30.270Z,100.00
2022-09-11T06:21:04.175Z,100.00
2022-09-11T06:23:30.653Z,100.00
2022-09-11T06:26:14.218Z,100.00
2022-09-11T06:28:41.287Z,99.75
2022-09-11T06:31:11.427Z,99.19
2022-09-11T06:33:39.926Z,99.71
2022-09-11T06:36:10.675Z,99.68
2022-09-11T06:38:38.402Z,98.51
2022-09-11T06:41:06.708Z,98.46
2022-09-11T06:43:33.994Z,99.08
2022-09-11T06:46:05.695Z,98.26
2022-09-11T06:48:32.274Z,97.95
2022-09-11T06:51:11.400Z,97.44
2022-09-11T06:53:40.233Z,97.50
2022-09-11T06:56:09.532Z,97.51
2022-09-11T06:58:36.052Z,97.35
2022-09-11T07:01:06.879Z,97.22
2022-09-11T07:03:33.476Z,96.66
2022-09-11T07:06:00.439Z,96.13
2022-09-11T07:08:27.501Z,95.78
2022-09-11T07:10:54.526Z,95.74
2022-09-11T07:13:24.314Z,95.73
2022-09-11T07:16:00.361Z,95.09
2022-09-11T07:18:26.867Z,94.73
2022-09-11T07:20:53.333Z,94.92
2022-09-11T07:23:20.068Z,94.90
2022-09-11T07:25:46.618Z,94.98
2022-09-11T07:28:13.076Z,95.02
2022-09-11T07:30:40.553Z,94.72
2022-09-11T07:33:07.118Z,94.61
2022-09-11T07:35:36.989Z,94.15
2022-09-11T07:38:03.554Z,93.93
2022-09-11T07:40:31.309Z,93.81
2022-09-11T07:42:57.792Z,94.20
2022-09-11T07:45:24.343Z,93.96
2022-09-11T07:47:50.868Z,93.22
2022-09-11T07:50:18.094Z,93.02
2022-09-11T07:52:44.649Z,92.94
2022-09-11T07:55:11.203Z,92.61
2022-09-11T07:57:37.768Z,92.54
2022-09-11T08:00:04.598Z,92.27
2022-09-11T08:02:31.109Z,91.71
2022-09-11T08:04:58.233Z,91.39
2022-09-11T08:07:25.518Z,90.39
2022-09-11T08:10:10.136Z,90.48
2022-09-11T08:12:38.484Z,89.52
2022-09-11T08:15:05.331Z,88.61
2022-09-11T08:17:31.807Z,88.37
2022-09-11T08:19:58.284Z,87.61
2022-09-11T08:22:24.791Z,87.76
2022-09-11T08:24:51.289Z,87.47
2022-09-11T08:27:17.825Z,87.25
2022-09-11T08:29:44.689Z,86.02
2022-09-11T08:32:13.207Z,86.40
2022-09-11T08:34:39.720Z,85.33
2022-09-11T08:37:06.249Z,85.02
2022-09-11T08:39:32.727Z,84.31
2022-09-11T08:42:07.766Z,83.54
2022-09-11T08:44:47.724Z,84.04
2022-09-11T08:47:20.612Z,83.34
2022-09-11T08:50:00.972Z,82.69
2022-09-11T08:52:27.602Z,82.32
2022-09-11T08:54:57.928Z,81.43
2022-09-11T08:57:35.103Z,80.85
2022-09-11T09:00:14.568Z,81.03
2022-09-11T09:02:52.165Z,80.51
2022-09-11T09:05:41.901Z,79.85
2022-09-11T09:08:18.009Z,79.25
2022-09-11T09:10:52.845Z,78.88
2022-09-11T09:13:47.062Z,80.04
2022-09-11T09:16:32.475Z,79.91
2022-09-11T09:19:13.048Z,79.28
2022-09-11T09:21:39.497Z,79.60
2022-09-11T09:24:19.332Z,78.90
2022-09-11T09:26:52.716Z,79.24
2022-09-11T09:29:23.348Z,79.26
2022-09-11T09:31:54.949Z,79.35
2022-09-11T09:34:24.654Z,78.09
2022-09-11T09:37:18.026Z,78.08
2022-09-11T09:39:45.679Z,77.16
2022-09-11T09:42:21.111Z,77.36
2022-09-11T09:44:50.684Z,76.69
2022-09-11T09:47:17.810Z,76.82
2022-09-11T09:49:45.411Z,75.55
2022-09-11T09:52:21.110Z,75.40
2022-09-11T09:55:00.432Z,75.70
2022-09-11T09:57:34.399Z,76.46
2022-09-11T10:00:09.985Z,75.55
2022-09-11T10:02:50.934Z,75.22
2022-09-11T10:05:33.045Z,75.31
2022-09-11T10:08:03.082Z,74.65
2022-09-11T10:10:40.649Z,75.77
2022-09-11T10:13:43.783Z,75.72
2022-09-11T10:16:25.008Z,75.94
2022-09-11T10:18:53.278Z,75.79
2022-09-11T10:21:30.261Z,74.66
2022-09-11T10:24:01.068Z,75.00
2022-09-11T10:26:51.437Z,74.38
2022-09-11T10:29:26.674Z,74.63
2022-09-11T10:31:55.456Z,74.21
2022-09-11T10:34:25.402Z,72.99
2022-09-11T10:37:00.467Z,72.52
2022-09-11T10:39:30.612Z,73.32
2022-09-11T10:42:02.105Z,72.57
2022-09-11T10:44:30.739Z,72.78
2022-09-11T10:47:23.067Z,71.27
2022-09-11T10:49:49.721Z,71.62
2022-09-11T10:52:19.673Z,70.75
2022-09-11T10:55:15.831Z,69.97
2022-09-11T10:57:50.835Z,69.11
2022-09-11T11:00:27.385Z,70.02
2022-09-11T11:03:07.355Z,70.20
2022-09-11T11:06:04.153Z,69.99
2022-09-11T11:08:39.477Z,69.35
2022-09-11T11:11:14.753Z,68.09
2022-09-11T11:14:17.334Z,68.52
2022-09-11T11:16:59.630Z,69.14
2022-09-11T11:19:26.079Z,69.27
2022-09-11T11:21:55.303Z,68.58
2022-09-11T11:24:39.036Z,67.03
2022-09-11T11:27:27.521Z,68.21
2022-09-11T11:30:17.162Z,66.90
2022-09-11T11:32:43.592Z,65.69
2022-09-11T11:35:22.059Z,64.74
2022-09-11T11:37:53.248Z,63.80
2022-09-11T11:40:39.417Z,63.74
2022-09-11T11:43:17.580Z,62.49
2022-09-11T11:45:44.764Z,61.31
2022-09-11T11:48:39.601Z,61.02
2022-09-11T11:51:15.285Z,60.99
2022-09-11T11:54:20.518Z,59.63
2022-09-11T11:57:05.142Z,58.47
2022-09-11T12:00:03.226Z,56.22
2022-09-11T12:02:38.683Z,55.26
2022-09-11T12:05:11.416Z,55.37
2022-09-11T12:07:41.256Z,55.88
2022-09-11T12:10:21.737Z,54.92
2022-09-11T12:12:55.628Z,54.21
2022-09-11T12:15:24.640Z,55.33
2022-09-11T12:18:25.693Z,54.65
2022-09-11T12:20:52.960Z,53.77
2022-09-11T12:23:33.031Z,52.53
2022-09-11T12:26:22.346Z,53.92
2022-09-11T12:29:09.767Z,52.58
2022-09-11T12:31:51.615Z,48.62
2022-09-11T12:34:18.792Z,49.25
2022-09-11T12:37:33.196Z,50.90
2022-09-11T12:40:17.060Z,49.66
2022-09-11T12:42:47.716Z,49.66
2022-09-11T12:45:35.923Z,48.62
2022-09-11T12:48:06.252Z,49.32
2022-09-11T12:50:33.440Z,48.36
2022-09-11T12:53:02.499Z,47.86
2022-09-11T12:55:37.395Z,47.99
2022-09-11T12:58:22.274Z,46.25
2022-09-11T13:00:51.432Z,47.19
2022-09-11T13:03:20.123Z,46.67
2022-09-11T13:06:00.164Z,44.26
2022-09-11T13:08:30.425Z,45.65
2022-09-11T13:11:35.140Z,45.94
2022-09-11T13:14:02.076Z,45.28
2022-09-11T13:16:37.150Z,44.77
2022-09-11T13:19:10.240Z,43.43
2022-09-11T13:21:39.194Z,44.43
2022-09-11T13:24:25.768Z,42.57
2022-09-11T13:27:02.193Z,43.08
2022-09-11T13:29:31.100Z,43.71
2022-09-11T13:32:00.656Z,41.97
2022-09-11T13:34:29.452Z,40.55
2022-09-11T13:36:57.734Z,40.20
2022-09-11T13:39:26.487Z,41.53
2022-09-11T13:42:02.699Z,42.57
2022-09-11T13:44:35.488Z,42.80
2022-09-11T13:47:02.142Z,42.68
2022-09-11T13:49:37.174Z,40.14
2022-09-11T13:52:06.250Z,43.11
2022-09-11T13:54:43.095Z,43.30
2022-09-11T13:57:23.872Z,46.75
2022-09-11T13:59:53.626Z,48.37
2022-09-11T14:02:35.728Z,49.90
2022-09-11T14:05:10.438Z,51.62
2022-09-11T14:08:14.879Z,52.21
2022-09-11T14:10:48.733Z,53.07
2022-09-11T14:13:23.069Z,53.67
2022-09-11T14:15:53.189Z,54.99
2022-09-11T14:18:34.360Z,55.81
2022-09-11T14:21:04.310Z,56.17
2022-09-11T14:23:31.377Z,56.34
2022-09-11T14:26:09.080Z,56.90
2022-09-11T14:28:35.497Z,57.37
2022-09-11T14:31:07.781Z,56.83
2022-09-11T14:33:34.523Z,55.47
2022-09-11T14:36:09.171Z,55.13
2022-09-11T14:38:38.232Z,55.58
2022-09-11T14:41:07.078Z,55.07
2022-09-11T14:43:37.575Z,54.94
2022-09-11T14:46:04.319Z,54.23
2022-09-11T14:48:35.112Z,53.76
2022-09-11T14:53:32.039Z,54.78
2022-09-11T14:55:59.275Z,54.60
2022-09-11T14:58:27.341Z,54.32
2022-09-11T15:00:54.892Z,54.03
2022-09-11T15:03:22.216Z,54.02
2022-09-11T15:05:54.513Z,53.50
2022-09-11T15:08:21.051Z,54.08
2022-09-11T15:10:49.019Z,53.42
2022-09-11T15:13:15.594Z,53.09
2022-09-11T15:15:42.351Z,53.31
2022-09-11T15:18:09.456Z,53.27
2022-09-11T15:20:36.492Z,52.90
2022-09-11T15:23:03.073Z,53.09
2022-09-11T15:25:29.685Z,52.68
2022-09-11T15:27:56.414Z,53.19
2022-09-11T15:30:22.978Z,53.87
2022-09-11T15:32:49.611Z,53.90
2022-09-11T15:35:18.272Z,54.29
2022-09-11T15:37:46.776Z,55.38
2022-09-11T15:40:13.855Z,55.02
2022-09-11T15:42:40.605Z,55.43
2022-09-11T15:45:08.075Z,56.13
2022-09-11T15:47:34.642Z,55.53
2022-09-11T15:50:01.857Z,55.52
2022-09-11T15:52:29.474Z,56.01
2022-09-11T15:54:56.655Z,55.64
2022-09-11T15:57:23.221Z,55.54
2022-09-11T15:59:51.563Z,55.67
2022-09-11T16:02:20.575Z,56.56
2022-09-11T16:04:51.631Z,56.73
2022-09-11T16:07:20.128Z,56.69
2022-09-11T16:09:46.664Z,57.21
2022-09-11T16:12:15.711Z,57.91
2022-09-11T16:14:42.960Z,58.28
2022-09-11T16:17:11.950Z,58.30
2022-09-11T16:19:38.753Z,58.47
2022-09-11T16:22:07.059Z,58.74
2022-09-11T16:24:37.660Z,58.43
2022-09-11T16:27:08.736Z,58.49
2022-09-11T16:29:59.333Z,57.56
2022-09-11T16:32:28.636Z,57.92
2022-09-11T16:34:57.169Z,57.79
2022-09-11T16:37:23.936Z,58.10
2022-09-11T16:39:50.819Z,58.04
2022-09-11T16:42:21.756Z,58.44
2022-09-11T16:44:49.637Z,58.52
2022-09-11T16:47:17.204Z,58.64
2022-09-11T16:50:05.768Z,58.94
2022-09-11T16:52:31.175Z,59.97
2022-09-11T16:54:57.700Z,60.35
2022-09-11T16:57:24.216Z,60.56
2022-09-11T16:59:51.000Z,61.02
2022-09-11T17:02:17.638Z,61.35
2022-09-11T17:04:45.371Z,61.40
2022-09-11T17:07:11.938Z,61.96
2022-09-11T17:09:38.757Z,62.40
2022-09-11T17:12:05.313Z,62.77
2022-09-11T17:14:32.642Z,62.79
2022-09-11T17:16:59.125Z,63.27
2022-09-11T17:19:25.685Z,63.74
2022-09-11T17:21:52.278Z,63.49
2022-09-11T17:24:21.702Z,63.87
2022-09-11T17:26:51.323Z,64.12
2022-09-11T17:29:19.488Z,64.14
2022-09-11T17:31:46.781Z,64.29
2022-09-11T17:34:14.651Z,64.40
2022-09-11T17:36:41.459Z,64.60
2022-09-11T17:39:08.815Z,64.86
2022-09-11T17:41:35.405Z,64.80
2022-09-11T17:44:02.000Z,65.01
2022-09-11T17:46:29.552Z,65.65
2022-09-11T17:48:56.266Z,65.85
2022-09-11T17:51:25.720Z,65.93
2022-09-11T17:53:56.241Z,66.34
2022-09-11T17:56:25.876Z,66.49
2022-09-11T17:58:54.733Z,66.34
2022-09-11T18:01:22.832Z,67.41
2022-09-11T18:03:51.330Z,67.48
2022-09-11T18:06:28.343Z,67.90
2022-09-11T18:08:57.762Z,68.08
2022-09-11T18:11:24.858Z,68.40
2022-09-11T18:13:51.420Z,68.50
2022-09-11T18:16:18.074Z,68.88
2022-09-11T18:18:44.628Z,68.70
2022-09-11T18:21:12.314Z,68.50
2022-09-11T18:23:42.019Z,68.93
2022-09-11T18:26:10.317Z,69.41
2022-09-11T18:28:39.742Z,69.90
2022-09-11T18:31:07.161Z,70.49
2022-09-11T18:33:33.771Z,71.19
2022-09-11T18:36:13.440Z,71.10
2022-09-11T18:38:40.385Z,71.60
2022-09-11T18:41:06.945Z,72.07
2022-09-11T18:43:33.557Z,72.24
2022-09-11T18:46:03.200Z,72.67
2022-09-11T18:48:29.783Z,72.05
2022-09-11T18:50:56.530Z,72.81
2022-09-11T18:53:23.389Z,73.28
2022-09-11T18:56:00.210Z,73.69
2022-09-11T18:58:31.127Z,74.42
2022-09-11T19:01:00.542Z,74.81
2022-09-11T19:03:32.746Z,74.40
2022-09-11T19:06:03.626Z,75.21
2022-09-11T19:08:30.414Z,75.70
2022-09-11T19:10:56.867Z,75.73
2022-09-11T19:13:25.937Z,75.33
2022-09-11T19:15:56.885Z,75.35
2022-09-11T19:18:24.238Z,75.70
2022-09-11T19:21:03.889Z,75.77
2022-09-11T19:23:36.165Z,76.32
2022-09-11T19:26:14.664Z,76.84
2022-09-11T19:28:42.700Z,77.20
2022-09-11T19:31:12.135Z,77.16
2022-09-11T19:33:39.765Z,78.30
2022-09-11T19:36:10.742Z,77.90
2022-09-11T19:38:42.821Z,77.97
2022-09-11T19:41:12.713Z,78.52
2022-09-11T19:43:40.980Z,78.40
2022-09-11T19:46:13.683Z,78.91
2022-09-11T19:48:41.046Z,78.98
2022-09-11T19:51:16.126Z,78.95
2022-09-11T19:53:43.327Z,79.08
2022-09-11T19:56:11.519Z,79.12
2022-09-11T19:58:38.878Z,79.27
2022-09-11T20:01:09.178Z,79.98
2022-09-11T20:03:40.873Z,79.00
2022-09-11T20:06:08.910Z,79.68
2022-09-11T20:08:37.239Z,79.93
2022-09-11T20:11:06.844Z,80.01
2022-09-11T20:13:36.122Z,81.17
2022-09-11T20:16:07.067Z,80.93
2022-09-11T20:18:34.444Z,81.40
2022-09-11T20:21:06.275Z,81.67
2022-09-11T20:23:34.533Z,80.93
2022-09-11T20:26:28.676Z,81.57
2022-09-11T20:28:58.229Z,81.36
2022-09-11T20:31:27.694Z,81.78
2022-09-11T20:33:54.160Z,83.59
2022-09-11T20:36:21.518Z,83.14
2022-09-11T20:38:52.658Z,82.70
2022-09-11T20:41:23.202Z,82.95
2022-09-11T20:43:50.196Z,83.33
2022-09-11T20:46:17.022Z,83.15
2022-09-11T20:48:43.584Z,83.55
2022-09-11T20:51:11.994Z,83.61
2022-09-11T20:53:41.660Z,83.72
2022-09-11T20:56:11.168Z,83.75
2022-09-11T20:58:37.961Z,84.48
2022-09-11T21:01:06.382Z,83.99
2022-09-11T21:03:33.151Z,84.12
2022-09-11T21:06:06.887Z,84.19
2022-09-11T21:08:34.242Z,84.31
2022-09-11T21:11:04.934Z,84.43
2022-09-11T21:13:35.154Z,84.10
2022-09-11T21:16:06.427Z,84.12
2022-09-11T21:18:33.000Z,83.67
2022-09-11T21:20:59.564Z,84.22
2022-09-11T21:23:26.223Z,84.46
2022-09-11T21:25:52.975Z,84.99
2022-09-11T21:28:19.779Z,84.82
2022-09-11T21:30:46.343Z,84.68
2022-09-11T21:33:12.857Z,85.13
2022-09-11T21:35:39.639Z,84.48
2022-09-11T21:38:06.199Z,84.67
2022-09-11T21:40:32.764Z,85.09
2022-09-11T21:42:59.235Z,85.61
2022-09-11T21:45:25.783Z,85.51
2022-09-11T21:47:52.305Z,84.96
2022-09-11T21:50:18.903Z,85.41
2022-09-11T21:52:45.394Z,85.70
2022-09-11T21:55:12.178Z,85.60
2022-09-11T21:57:38.727Z,85.81
2022-09-11T22:00:09.362Z,85.72
2022-09-11T22:02:35.986Z,86.37
2022-09-11T22:05:04.066Z,86.25
2022-09-11T22:07:31.799Z,86.26
2022-09-11T22:09:59.208Z,86.21
2022-09-11T22:12:25.960Z,85.90
2022-09-11T22:14:52.997Z,85.62
2022-09-11T22:17:19.517Z,85.81
2022-09-11T22:19:46.079Z,86.42
2022-09-11T22:22:13.592Z,86.76
2022-09-11T22:24:40.433Z,86.18
2022-09-11T22:27:09.410Z,86.01
2022-09-11T22:29:36.992Z,86.78
2022-09-11T22:32:06.501Z,86.95
2022-09-11T22:34:33.859Z,87.99
2022-09-11T22:37:00.539Z,87.47
2022-09-11T22:39:29.203Z,87.38
2022-09-11T22:41:55.916Z,87.19
2022-09-11T22:44:22.555Z,87.14
2022-09-11T22:46:49.107Z,87.45
2022-09-11T22:49:15.692Z,87.08
2022-09-11T22:51:42.219Z,87.20
2022-09-11T22:54:08.737Z,87.54
2022-09-11T22:56:35.259Z,87.56
2022-09-11T22:59:01.738Z,87.07
2022-09-11T23:01:28.303Z,86.84
2022-09-11T23:03:54.921Z,87.11
2022-09-11T23:06:40.322Z,86.49
2022-09-11T23:09:10.486Z,86.43
2022-09-11T23:11:37.088Z,86.60
2022-09-11T23:14:03.670Z,87.27
2022-09-11T23:16:31.225Z,86.71
2022-09-11T23:19:00.524Z,86.91
2022-09-11T23:21:29.480Z,86.93
2022-09-11T23:23:57.542Z,87.01
2022-09-11T23:26:25.487Z,86.79
2022-09-11T23:28:52.540Z,87.16
2022-09-11T23:31:21.871Z,87.25
2022-09-11T23:33:48.727Z,87.02
2022-09-11T23:36:15.782Z,87.13
2022-09-11T23:38:46.647Z,87.79
2022-09-11T23:41:14.661Z,87.36
2022-09-11T23:43:41.796Z,87.97
2022-09-11T23:46:09.030Z,87.97
2022-09-11T23:48:36.089Z,88.34
2022-09-11T23:51:02.622Z,87.48
2022-09-11T23:53:29.851Z,87.69
2022-09-11T23:55:57.257Z,88.00
2022-09-11T23:58:24.726Z,88.55
